Blodgett Mills, New York
Current Conditions -  °F | °C
As of 7:15 PM on Wednesday 26 Nov 2014 (Local Time) from KN03 Reporting Station
Light Snow Light Snow  
Wind Chill: 24°   Ceiling: 3600
Heat Index: 30°   Visibility: 7mi
Dew Point: 30°   Wind: 6mph
Humidity: 100%   Direction: 30°NNE
Pressure: 29.99"   Gusts: NA
Location:  42.57°N, 76.13°W
Report Text: KN03 270015Z AUTO 03005KT 7SM -SN SCT014 BKN036 OVC045 M01/M01 A2999 RMK AO2
Loading
Personal Weather Stations






























Interactive Weather Map New forecast layout! Learn more

10-Day Weather Forecast

Advertisements
Track Severe Weather on mobile